메인 페이지
METAR-TAF:

METAR-TAF

공항 :

인디라 간디 국제공항

뉴델리, 인도

위도: 28-34N, 경도: 077-07E, 고도: 220m

현재 날씨관측

예보는 35분 전, 04:30시(UTC)에 발표되었습니다.
동북동4kt
온도 23°C
습도 65%
기압 1017 hPa
시정: 2000m
연기

METAR: VIDP 150430Z 06004KT 2000 R28/P2000 R29/P2000 FU NSC 23/16 Q1017 NOSIG

시각: 10:35 (05:05 UTC)

예보

예보는 3 시간 5분 전, 02:00시(UTC)에 발표되었습니다.
예보 대상 시간: 15일 03시부터 15일 12시까지 (UTC)
3kt
시정: 1000m
고도 4000ft 상공 구름 조금
고도 10000ft 상공 구름 보통
박무
전환 중
15일 05시부터 15일 07시까지 (UTC)
서북서8kt
시정: 3000m
고도 4000ft 상공 구름 보통
연무

TAF: VIDP 150200Z 1503/1512 26003KT 1000 BR FEW040 SCT100 BECMG 1505/1507 29008KT 3000 HZ SCT040

4,000개 이상의 공항 관측 자료 및 예보 (METAR 및 TAF 보고).

지도상에서 검색 가능한 기상관측소가 노란 점과 빨간 점으로 표시되어 있습니다.

기상관측소 명을 보려면 표시 위로 마우스를 이동하세요.

날씨 관측과 예보를 보려면 클릭하세요.

지도 변경 : 확대하려면 엑스 표시가 있는 녹색 버튼, 축소하려면 빼기 표시가 있는 녹색 버튼, 다음 페이지의 지도를 보려면 녹색 화살표를 클릭하세요.


METAR-TAF: